Aullville, Missouri
Current Conditions -  °F | °C
As of 7:35 PM on Thursday 27 Nov 2014 (Local Time) from KRCM Reporting Station
Clear Clear  
Wind Chill: -3°   Ceiling: Unl
Heat Index:   Visibility: 10mi
Dew Point: -4°   Wind: 6mph
Humidity: 75%   Direction: 100°E
Pressure: 30.37"   Gusts: NA
Location:  39.0541°N, 93.6618°W
Report Text: KRCM 280135Z AUTO 10005KT 10SM CLR 00/M04 A3037 RMK AO2
Loading
Personal Weather Stations






























Interactive Weather Map New forecast layout! Learn more

10-Day Weather Forecast

Advertisements
Track Severe Weather on mobile